sensor_id;sensor_type;location;lat;lon;timestamp;P1;durP1;ratioP1;P2;durP2;ratioP2
8312;SDS011;4194;43.408;24.626;2023-03-01T00:01:23;23.17;;;14.33;;
8312;SDS011;4194;43.408;24.626;2023-03-01T00:03:50;17.93;;;13.73;;
8312;SDS011;4194;43.408;24.626;2023-03-01T00:06:17;21.73;;;15.07;;
8312;SDS011;4194;43.408;24.626;2023-03-01T00:08:43;21.03;;;13.70;;
8312;SDS011;4194;43.408;24.626;2023-03-01T00:13:43;19.67;;;13.90;;
8312;SDS011;4194;43.408;24.626;2023-03-01T00:16:17;21.87;;;14.87;;
8312;SDS011;4194;43.408;24.626;2023-03-01T00:18:45;20.57;;;14.63;;
8312;SDS011;4194;43.408;24.626;2023-03-01T00:21:11;23.03;;;15.57;;
8312;SDS011;4194;43.408;24.626;2023-03-01T00:23:37;23.63;;;15.53;;
8312;SDS011;4194;43.408;24.626;2023-03-01T00:26:12;22.67;;;15.10;;
8312;SDS011;4194;43.408;24.626;2023-03-01T00:28:38;24.70;;;15.73;;
8312;SDS011;4194;43.408;24.626;2023-03-01T00:31:05;20.50;;;14.47;;
8312;SDS011;4194;43.408;24.626;2023-03-01T00:33:31;21.43;;;14.87;;
8312;SDS011;4194;43.408;24.626;2023-03-01T00:36:00;22.77;;;15.43;;
8312;SDS011;4194;43.408;24.626;2023-03-01T00:38:26;24.10;;;14.83;;
8312;SDS011;4194;43.408;24.626;2023-03-01T00:40:52;22.67;;;15.03;;
8312;SDS011;4194;43.408;24.626;2023-03-01T00:43:17;22.10;;;14.73;;
8312;SDS011;4194;43.408;24.626;2023-03-01T00:45:43;21.53;;;13.73;;
8312;SDS011;4194;43.408;24.626;2023-03-01T00:48:09;21.40;;;13.57;;
8312;SDS011;4194;43.408;24.626;2023-03-01T00:50:35;20.83;;;14.60;;
8312;SDS011;4194;43.408;24.626;2023-03-01T00:53:00;21.83;;;14.60;;
8312;SDS011;4194;43.408;24.626;2023-03-01T00:55:26;20.77;;;14.13;;
8312;SDS011;4194;43.408;24.626;2023-03-01T00:57:52;19.53;;;13.87;;
8312;SDS011;4194;43.408;24.626;2023-03-01T01:00:18;20.87;;;14.23;;
8312;SDS011;4194;43.408;24.626;2023-03-01T01:02:44;20.70;;;13.57;;
8312;SDS011;4194;43.408;24.626;2023-03-01T01:05:10;20.17;;;14.67;;
8312;SDS011;4194;43.408;24.626;2023-03-01T01:07:36;18.07;;;13.33;;
8312;SDS011;4194;43.408;24.626;2023-03-01T01:10:02;18.90;;;13.07;;
8312;SDS011;4194;43.408;24.626;2023-03-01T01:12:28;19.20;;;14.00;;
8312;SDS011;4194;43.408;24.626;2023-03-01T01:14:54;19.27;;;12.60;;
8312;SDS011;4194;43.408;24.626;2023-03-01T01:17:19;19.33;;;12.93;;
8312;SDS011;4194;43.408;24.626;2023-03-01T01:19:45;17.40;;;12.57;;
8312;SDS011;4194;43.408;24.626;2023-03-01T01:22:11;15.87;;;12.37;;
8312;SDS011;4194;43.408;24.626;2023-03-01T01:24:37;16.93;;;11.70;;
8312;SDS011;4194;43.408;24.626;2023-03-01T01:27:03;17.30;;;12.33;;
8312;SDS011;4194;43.408;24.626;2023-03-01T01:29:28;16.27;;;11.57;;
8312;SDS011;4194;43.408;24.626;2023-03-01T01:31:54;18.37;;;12.20;;
8312;SDS011;4194;43.408;24.626;2023-03-01T01:34:21;15.47;;;11.17;;
8312;SDS011;4194;43.408;24.626;2023-03-01T01:36:48;17.43;;;11.70;;
8312;SDS011;4194;43.408;24.626;2023-03-01T01:39:14;19.87;;;12.57;;
8312;SDS011;4194;43.408;24.626;2023-03-01T01:41:41;16.07;;;12.20;;
8312;SDS011;4194;43.408;24.626;2023-03-01T01:44:14;17.60;;;12.10;;
8312;SDS011;4194;43.408;24.626;2023-03-01T01:49:47;15.37;;;11.50;;
8312;SDS011;4194;43.408;24.626;2023-03-01T01:52:17;15.50;;;11.73;;
8312;SDS011;4194;43.408;24.626;2023-03-01T01:57:37;16.90;;;11.30;;
8312;SDS011;4194;43.408;24.626;2023-03-01T02:00:20;15.87;;;11.03;;
8312;SDS011;4194;43.408;24.626;2023-03-01T02:02:48;15.10;;;11.70;;
8312;SDS011;4194;43.408;24.626;2023-03-01T02:08:08;17.47;;;11.47;;
8312;SDS011;4194;43.408;24.626;2023-03-01T02:10:36;16.63;;;12.20;;
8312;SDS011;4194;43.408;24.626;2023-03-01T02:13:03;15.63;;;10.87;;
8312;SDS011;4194;43.408;24.626;2023-03-01T02:15:33;14.23;;;10.50;;
8312;SDS011;4194;43.408;24.626;2023-03-01T02:17:59;14.83;;;10.67;;
8312;SDS011;4194;43.408;24.626;2023-03-01T02:20:29;18.05;;;13.95;;
8312;SDS011;4194;43.408;24.626;2023-03-01T02:23:03;14.97;;;10.60;;
8312;SDS011;4194;43.408;24.626;2023-03-01T02:30:40;15.57;;;11.77;;
8312;SDS011;4194;43.408;24.626;2023-03-01T02:33:29;15.40;;;11.00;;
8312;SDS011;4194;43.408;24.626;2023-03-01T02:35:57;17.27;;;11.93;;
8312;SDS011;4194;43.408;24.626;2023-03-01T02:38:25;18.27;;;12.17;;
8312;SDS011;4194;43.408;24.626;2023-03-01T02:40:51;18.57;;;12.00;;
8312;SDS011;4194;43.408;24.626;2023-03-01T02:43:18;16.63;;;10.87;;
8312;SDS011;4194;43.408;24.626;2023-03-01T02:45:48;15.87;;;10.97;;
8312;SDS011;4194;43.408;24.626;2023-03-01T02:48:15;18.37;;;12.20;;
8312;SDS011;4194;43.408;24.626;2023-03-01T02:53:17;16.37;;;11.90;;
8312;SDS011;4194;43.408;24.626;2023-03-01T02:55:54;20.30;;;12.23;;
8312;SDS011;4194;43.408;24.626;2023-03-01T02:58:21;17.13;;;12.00;;
8312;SDS011;4194;43.408;24.626;2023-03-01T03:00:46;16.77;;;11.17;;
8312;SDS011;4194;43.408;24.626;2023-03-01T03:03:15;16.03;;;11.37;;
8312;SDS011;4194;43.408;24.626;2023-03-01T03:05:42;17.20;;;11.10;;
8312;SDS011;4194;43.408;24.626;2023-03-01T03:08:08;18.77;;;12.07;;
8312;SDS011;4194;43.408;24.626;2023-03-01T03:10:35;15.93;;;11.07;;
8312;SDS011;4194;43.408;24.626;2023-03-01T03:13:04;15.97;;;11.13;;
8312;SDS011;4194;43.408;24.626;2023-03-01T03:15:30;15.90;;;11.67;;
8312;SDS011;4194;43.408;24.626;2023-03-01T03:17:57;16.30;;;11.37;;
8312;SDS011;4194;43.408;24.626;2023-03-01T03:20:24;17.37;;;11.37;;
8312;SDS011;4194;43.408;24.626;2023-03-01T03:22:53;17.70;;;12.20;;
8312;SDS011;4194;43.408;24.626;2023-03-01T03:25:19;18.17;;;13.17;;
8312;SDS011;4194;43.408;24.626;2023-03-01T03:27:46;23.23;;;14.53;;
8312;SDS011;4194;43.408;24.626;2023-03-01T03:30:16;17.00;;;11.60;;
8312;SDS011;4194;43.408;24.626;2023-03-01T03:32:44;19.03;;;13.50;;
8312;SDS011;4194;43.408;24.626;2023-03-01T03:35:18;18.23;;;13.53;;
8312;SDS011;4194;43.408;24.626;2023-03-01T03:37:44;19.60;;;13.83;;
8312;SDS011;4194;43.408;24.626;2023-03-01T03:43:01;19.27;;;13.37;;
8312;SDS011;4194;43.408;24.626;2023-03-01T03:45:28;19.97;;;13.30;;
8312;SDS011;4194;43.408;24.626;2023-03-01T03:47:54;19.40;;;15.20;;
8312;SDS011;4194;43.408;24.626;2023-03-01T03:50:20;23.73;;;16.47;;
8312;SDS011;4194;43.408;24.626;2023-03-01T03:52:46;19.00;;;13.90;;
8312;SDS011;4194;43.408;24.626;2023-03-01T03:55:11;17.03;;;12.13;;
8312;SDS011;4194;43.408;24.626;2023-03-01T03:57:38;18.00;;;12.97;;
8312;SDS011;4194;43.408;24.626;2023-03-01T04:00:05;21.43;;;14.30;;
8312;SDS011;4194;43.408;24.626;2023-03-01T04:02:40;18.93;;;14.23;;
8312;SDS011;4194;43.408;24.626;2023-03-01T04:05:07;17.93;;;13.13;;
8312;SDS011;4194;43.408;24.626;2023-03-01T04:07:34;18.43;;;14.07;;
8312;SDS011;4194;43.408;24.626;2023-03-01T04:10:02;24.37;;;15.77;;
8312;SDS011;4194;43.408;24.626;2023-03-01T04:12:32;19.07;;;13.30;;
8312;SDS011;4194;43.408;24.626;2023-03-01T04:15:05;19.83;;;13.47;;
8312;SDS011;4194;43.408;24.626;2023-03-01T04:17:41;19.10;;;13.17;;
8312;SDS011;4194;43.408;24.626;2023-03-01T04:20:09;15.37;;;12.33;;
8312;SDS011;4194;43.408;24.626;2023-03-01T04:22:39;19.37;;;14.00;;
8312;SDS011;4194;43.408;24.626;2023-03-01T04:25:05;20.07;;;14.63;;
8312;SDS011;4194;43.408;24.626;2023-03-01T04:27:32;20.00;;;14.33;;
8312;SDS011;4194;43.408;24.626;2023-03-01T04:29:59;17.23;;;12.07;;
8312;SDS011;4194;43.408;24.626;2023-03-01T04:32:25;17.47;;;12.90;;
8312;SDS011;4194;43.408;24.626;2023-03-01T04:34:50;17.00;;;12.60;;
8312;SDS011;4194;43.408;24.626;2023-03-01T04:37:16;16.77;;;13.30;;
8312;SDS011;4194;43.408;24.626;2023-03-01T04:39:41;20.00;;;13.47;;
8312;SDS011;4194;43.408;24.626;2023-03-01T04:42:13;18.67;;;13.13;;
8312;SDS011;4194;43.408;24.626;2023-03-01T04:44:40;18.20;;;13.37;;
8312;SDS011;4194;43.408;24.626;2023-03-01T04:47:06;24.30;;;20.40;;
8312;SDS011;4194;43.408;24.626;2023-03-01T04:49:32;19.83;;;15.70;;
8312;SDS011;4194;43.408;24.626;2023-03-01T04:51:58;20.20;;;15.17;;
8312;SDS011;4194;43.408;24.626;2023-03-01T04:54:26;18.80;;;13.67;;
8312;SDS011;4194;43.408;24.626;2023-03-01T04:56:57;20.13;;;13.90;;
8312;SDS011;4194;43.408;24.626;2023-03-01T04:59:23;19.30;;;13.90;;
8312;SDS011;4194;43.408;24.626;2023-03-01T05:01:50;19.67;;;13.67;;
8312;SDS011;4194;43.408;24.626;2023-03-01T05:04:16;17.27;;;13.33;;
8312;SDS011;4194;43.408;24.626;2023-03-01T05:06:42;17.73;;;13.87;;
8312;SDS011;4194;43.408;24.626;2023-03-01T05:09:08;20.63;;;14.87;;
8312;SDS011;4194;43.408;24.626;2023-03-01T05:11:34;19.80;;;14.23;;
8312;SDS011;4194;43.408;24.626;2023-03-01T05:14:01;21.67;;;16.63;;
8312;SDS011;4194;43.408;24.626;2023-03-01T05:16:27;20.97;;;14.60;;
8312;SDS011;4194;43.408;24.626;2023-03-01T05:18:53;20.87;;;16.07;;
8312;SDS011;4194;43.408;24.626;2023-03-01T05:21:20;21.17;;;15.77;;
8312;SDS011;4194;43.408;24.626;2023-03-01T05:23:46;20.87;;;14.50;;
8312;SDS011;4194;43.408;24.626;2023-03-01T05:26:13;19.60;;;13.70;;
8312;SDS011;4194;43.408;24.626;2023-03-01T05:28:39;20.60;;;14.33;;
8312;SDS011;4194;43.408;24.626;2023-03-01T05:31:06;19.73;;;14.63;;
8312;SDS011;4194;43.408;24.626;2023-03-01T05:33:38;20.00;;;14.80;;
8312;SDS011;4194;43.408;24.626;2023-03-01T05:36:05;21.93;;;14.70;;
8312;SDS011;4194;43.408;24.626;2023-03-01T05:38:32;21.57;;;14.23;;
8312;SDS011;4194;43.408;24.626;2023-03-01T05:40:58;24.80;;;16.83;;
8312;SDS011;4194;43.408;24.626;2023-03-01T05:43:24;23.93;;;15.63;;
8312;SDS011;4194;43.408;24.626;2023-03-01T05:45:50;24.23;;;16.67;;
8312;SDS011;4194;43.408;24.626;2023-03-01T05:48:16;18.90;;;13.60;;
8312;SDS011;4194;43.408;24.626;2023-03-01T05:50:44;22.13;;;14.33;;
8312;SDS011;4194;43.408;24.626;2023-03-01T05:55:39;22.97;;;16.30;;
8312;SDS011;4194;43.408;24.626;2023-03-01T05:58:07;21.63;;;16.10;;
8312;SDS011;4194;43.408;24.626;2023-03-01T06:00:35;19.87;;;15.03;;
8312;SDS011;4194;43.408;24.626;2023-03-01T06:03:01;22.97;;;15.37;;
8312;SDS011;4194;43.408;24.626;2023-03-01T06:05:27;22.47;;;16.53;;
8312;SDS011;4194;43.408;24.626;2023-03-01T06:07:53;24.53;;;15.77;;
8312;SDS011;4194;43.408;24.626;2023-03-01T06:10:20;23.20;;;15.33;;
8312;SDS011;4194;43.408;24.626;2023-03-01T06:12:47;20.73;;;14.77;;
8312;SDS011;4194;43.408;24.626;2023-03-01T06:15:14;24.90;;;16.70;;
8312;SDS011;4194;43.408;24.626;2023-03-01T06:17:41;28.77;;;16.50;;
8312;SDS011;4194;43.408;24.626;2023-03-01T06:20:19;24.27;;;16.43;;
8312;SDS011;4194;43.408;24.626;2023-03-01T06:22:45;25.10;;;15.97;;
8312;SDS011;4194;43.408;24.626;2023-03-01T06:25:13;23.70;;;16.53;;
8312;SDS011;4194;43.408;24.626;2023-03-01T06:27:40;23.77;;;16.93;;
8312;SDS011;4194;43.408;24.626;2023-03-01T06:30:07;24.07;;;16.77;;
8312;SDS011;4194;43.408;24.626;2023-03-01T06:32:34;23.83;;;16.10;;
8312;SDS011;4194;43.408;24.626;2023-03-01T06:35:00;26.20;;;16.73;;
8312;SDS011;4194;43.408;24.626;2023-03-01T06:37:26;23.97;;;17.00;;
8312;SDS011;4194;43.408;24.626;2023-03-01T06:39:52;24.80;;;16.30;;
8312;SDS011;4194;43.408;24.626;2023-03-01T06:42:17;23.90;;;14.93;;
8312;SDS011;4194;43.408;24.626;2023-03-01T06:44:44;25.00;;;16.73;;
8312;SDS011;4194;43.408;24.626;2023-03-01T06:47:09;24.17;;;15.33;;
8312;SDS011;4194;43.408;24.626;2023-03-01T06:49:35;24.43;;;16.17;;
8312;SDS011;4194;43.408;24.626;2023-03-01T06:52:00;26.97;;;16.03;;
8312;SDS011;4194;43.408;24.626;2023-03-01T06:54:26;27.33;;;18.20;;
8312;SDS011;4194;43.408;24.626;2023-03-01T06:56:52;28.77;;;16.93;;
8312;SDS011;4194;43.408;24.626;2023-03-01T06:59:18;46.93;;;28.83;;
8312;SDS011;4194;43.408;24.626;2023-03-01T07:01:44;27.60;;;18.40;;
8312;SDS011;4194;43.408;24.626;2023-03-01T07:04:10;29.00;;;17.30;;
8312;SDS011;4194;43.408;24.626;2023-03-01T07:06:37;34.07;;;23.70;;
8312;SDS011;4194;43.408;24.626;2023-03-01T07:09:03;24.17;;;16.50;;
8312;SDS011;4194;43.408;24.626;2023-03-01T07:11:29;24.23;;;15.93;;
8312;SDS011;4194;43.408;24.626;2023-03-01T07:13:54;27.40;;;20.30;;
8312;SDS011;4194;43.408;24.626;2023-03-01T07:16:21;24.77;;;17.23;;
8312;SDS011;4194;43.408;24.626;2023-03-01T07:18:46;21.53;;;14.87;;
8312;SDS011;4194;43.408;24.626;2023-03-01T07:21:13;21.33;;;15.03;;
8312;SDS011;4194;43.408;24.626;2023-03-01T07:23:39;24.57;;;17.07;;
8312;SDS011;4194;43.408;24.626;2023-03-01T07:26:05;25.27;;;19.13;;
8312;SDS011;4194;43.408;24.626;2023-03-01T07:28:32;24.07;;;17.20;;
8312;SDS011;4194;43.408;24.626;2023-03-01T07:31:03;27.60;;;18.13;;
8312;SDS011;4194;43.408;24.626;2023-03-01T07:33:30;26.57;;;16.53;;
8312;SDS011;4194;43.408;24.626;2023-03-01T07:35:59;27.03;;;16.03;;
8312;SDS011;4194;43.408;24.626;2023-03-01T07:38:27;26.40;;;16.63;;
8312;SDS011;4194;43.408;24.626;2023-03-01T07:40:54;24.30;;;16.03;;
8312;SDS011;4194;43.408;24.626;2023-03-01T07:43:27;22.83;;;16.53;;
8312;SDS011;4194;43.408;24.626;2023-03-01T07:45:53;21.63;;;15.77;;
8312;SDS011;4194;43.408;24.626;2023-03-01T07:48:19;24.00;;;15.87;;
8312;SDS011;4194;43.408;24.626;2023-03-01T07:50:45;25.33;;;16.13;;
8312;SDS011;4194;43.408;24.626;2023-03-01T07:53:11;27.73;;;17.77;;
8312;SDS011;4194;43.408;24.626;2023-03-01T07:55:36;27.60;;;16.17;;
8312;SDS011;4194;43.408;24.626;2023-03-01T07:58:02;23.33;;;15.73;;
8312;SDS011;4194;43.408;24.626;2023-03-01T08:00:28;22.27;;;15.77;;
8312;SDS011;4194;43.408;24.626;2023-03-01T08:02:54;26.17;;;17.40;;
8312;SDS011;4194;43.408;24.626;2023-03-01T08:05:19;28.33;;;16.50;;
8312;SDS011;4194;43.408;24.626;2023-03-01T08:07:47;24.87;;;16.50;;
8312;SDS011;4194;43.408;24.626;2023-03-01T08:10:13;23.27;;;14.87;;
8312;SDS011;4194;43.408;24.626;2023-03-01T08:12:39;25.13;;;15.63;;
8312;SDS011;4194;43.408;24.626;2023-03-01T08:15:05;25.03;;;16.57;;
8312;SDS011;4194;43.408;24.626;2023-03-01T08:17:31;27.30;;;17.00;;
8312;SDS011;4194;43.408;24.626;2023-03-01T08:19:56;23.47;;;17.20;;
8312;SDS011;4194;43.408;24.626;2023-03-01T08:22:22;24.80;;;17.13;;
8312;SDS011;4194;43.408;24.626;2023-03-01T08:24:48;24.97;;;17.00;;
8312;SDS011;4194;43.408;24.626;2023-03-01T08:27:14;27.10;;;18.20;;
8312;SDS011;4194;43.408;24.626;2023-03-01T08:29:41;28.67;;;18.17;;
8312;SDS011;4194;43.408;24.626;2023-03-01T08:32:06;26.03;;;17.33;;
8312;SDS011;4194;43.408;24.626;2023-03-01T08:34:32;26.03;;;16.63;;
8312;SDS011;4194;43.408;24.626;2023-03-01T08:37:00;26.57;;;16.93;;
8312;SDS011;4194;43.408;24.626;2023-03-01T08:39:27;23.20;;;16.60;;
8312;SDS011;4194;43.408;24.626;2023-03-01T08:41:53;22.40;;;15.20;;
8312;SDS011;4194;43.408;24.626;2023-03-01T08:44:18;24.93;;;16.63;;
8312;SDS011;4194;43.408;24.626;2023-03-01T08:46:46;23.37;;;16.87;;
8312;SDS011;4194;43.408;24.626;2023-03-01T08:49:13;23.80;;;15.70;;
8312;SDS011;4194;43.408;24.626;2023-03-01T08:51:41;22.20;;;16.10;;
8312;SDS011;4194;43.408;24.626;2023-03-01T08:54:09;23.30;;;16.47;;
8312;SDS011;4194;43.408;24.626;2023-03-01T08:56:36;23.33;;;16.10;;
8312;SDS011;4194;43.408;24.626;2023-03-01T08:59:02;22.30;;;14.90;;
8312;SDS011;4194;43.408;24.626;2023-03-01T09:01:28;23.07;;;15.57;;
8312;SDS011;4194;43.408;24.626;2023-03-01T09:03:54;23.77;;;16.93;;
8312;SDS011;4194;43.408;24.626;2023-03-01T09:06:20;23.40;;;15.67;;
8312;SDS011;4194;43.408;24.626;2023-03-01T09:08:47;24.03;;;15.40;;
8312;SDS011;4194;43.408;24.626;2023-03-01T09:11:15;24.83;;;16.57;;
8312;SDS011;4194;43.408;24.626;2023-03-01T09:13:46;24.50;;;17.27;;
8312;SDS011;4194;43.408;24.626;2023-03-01T09:16:13;23.17;;;15.33;;
8312;SDS011;4194;43.408;24.626;2023-03-01T09:18:41;23.97;;;15.73;;
8312;SDS011;4194;43.408;24.626;2023-03-01T09:21:09;21.73;;;15.03;;
8312;SDS011;4194;43.408;24.626;2023-03-01T09:23:39;20.27;;;14.03;;
8312;SDS011;4194;43.408;24.626;2023-03-01T09:26:07;22.90;;;15.37;;
8312;SDS011;4194;43.408;24.626;2023-03-01T09:28:34;24.90;;;16.03;;
8312;SDS011;4194;43.408;24.626;2023-03-01T09:31:01;24.70;;;16.90;;
8312;SDS011;4194;43.408;24.626;2023-03-01T09:33:28;28.03;;;17.90;;
8312;SDS011;4194;43.408;24.626;2023-03-01T09:35:58;31.20;;;18.33;;
8312;SDS011;4194;43.408;24.626;2023-03-01T09:38:25;25.23;;;17.10;;
8312;SDS011;4194;43.408;24.626;2023-03-01T09:40:51;25.57;;;16.27;;
8312;SDS011;4194;43.408;24.626;2023-03-01T09:45:49;28.40;;;17.47;;
8312;SDS011;4194;43.408;24.626;2023-03-01T09:48:20;29.87;;;18.40;;
8312;SDS011;4194;43.408;24.626;2023-03-01T09:50:48;25.37;;;17.53;;
8312;SDS011;4194;43.408;24.626;2023-03-01T09:53:16;31.10;;;19.77;;
8312;SDS011;4194;43.408;24.626;2023-03-01T09:56:00;35.13;;;20.03;;
8312;SDS011;4194;43.408;24.626;2023-03-01T09:58:42;23.70;;;15.37;;
8312;SDS011;4194;43.408;24.626;2023-03-01T10:03:43;24.90;;;16.57;;
8312;SDS011;4194;43.408;24.626;2023-03-01T10:06:25;21.93;;;15.97;;
8312;SDS011;4194;43.408;24.626;2023-03-01T10:09:02;25.63;;;16.70;;
8312;SDS011;4194;43.408;24.626;2023-03-01T10:11:38;21.07;;;15.27;;
8312;SDS011;4194;43.408;24.626;2023-03-01T10:17:02;25.13;;;16.70;;
8312;SDS011;4194;43.408;24.626;2023-03-01T10:19:38;25.77;;;16.93;;
8312;SDS011;4194;43.408;24.626;2023-03-01T10:24:50;24.00;;;15.50;;
8312;SDS011;4194;43.408;24.626;2023-03-01T10:30:11;24.50;;;16.77;;
8312;SDS011;4194;43.408;24.626;2023-03-01T10:32:45;25.47;;;18.73;;
8312;SDS011;4194;43.408;24.626;2023-03-01T10:35:21;29.37;;;18.27;;
8312;SDS011;4194;43.408;24.626;2023-03-01T10:41:16;25.03;;;17.30;;
8312;SDS011;4194;43.408;24.626;2023-03-01T10:43:54;20.77;;;15.30;;
8312;SDS011;4194;43.408;24.626;2023-03-01T10:51:36;27.77;;;17.73;;
8312;SDS011;4194;43.408;24.626;2023-03-01T10:54:04;25.67;;;18.73;;
8312;SDS011;4194;43.408;24.626;2023-03-01T10:56:54;31.33;;;21.23;;
8312;SDS011;4194;43.408;24.626;2023-03-01T10:59:26;26.47;;;17.67;;
8312;SDS011;4194;43.408;24.626;2023-03-01T11:02:01;26.37;;;19.43;;
8312;SDS011;4194;43.408;24.626;2023-03-01T11:04:27;24.97;;;16.93;;
8312;SDS011;4194;43.408;24.626;2023-03-01T11:07:00;24.97;;;17.47;;
8312;SDS011;4194;43.408;24.626;2023-03-01T11:09:26;22.63;;;15.40;;
8312;SDS011;4194;43.408;24.626;2023-03-01T11:12:03;23.57;;;16.33;;
8312;SDS011;4194;43.408;24.626;2023-03-01T11:14:38;22.37;;;14.70;;
8312;SDS011;4194;43.408;24.626;2023-03-01T11:17:24;20.87;;;15.23;;
8312;SDS011;4194;43.408;24.626;2023-03-01T11:22:47;20.57;;;13.83;;
8312;SDS011;4194;43.408;24.626;2023-03-01T11:25:26;23.73;;;14.60;;
8312;SDS011;4194;43.408;24.626;2023-03-01T11:28:05;21.40;;;14.93;;
8312;SDS011;4194;43.408;24.626;2023-03-01T11:30:35;21.27;;;14.33;;
8312;SDS011;4194;43.408;24.626;2023-03-01T11:35:55;25.27;;;15.37;;
8312;SDS011;4194;43.408;24.626;2023-03-01T11:38:23;22.97;;;15.57;;
8312;SDS011;4194;43.408;24.626;2023-03-01T11:40:55;21.40;;;15.27;;
8312;SDS011;4194;43.408;24.626;2023-03-01T11:46:22;29.57;;;16.73;;
8312;SDS011;4194;43.408;24.626;2023-03-01T11:51:35;25.40;;;17.77;;
8312;SDS011;4194;43.408;24.626;2023-03-01T11:56:38;26.70;;;16.77;;
8312;SDS011;4194;43.408;24.626;2023-03-01T12:12:30;20.20;;;14.60;;
8312;SDS011;4194;43.408;24.626;2023-03-01T12:26:20;18.43;;;13.63;;
8312;SDS011;4194;43.408;24.626;2023-03-01T12:40:01;27.00;;;16.57;;
8312;SDS011;4194;43.408;24.626;2023-03-01T12:45:39;26.30;;;18.67;;
8312;SDS011;4194;43.408;24.626;2023-03-01T12:48:21;34.53;;;24.87;;
8312;SDS011;4194;43.408;24.626;2023-03-01T12:50:53;21.60;;;14.43;;
8312;SDS011;4194;43.408;24.626;2023-03-01T12:53:27;25.50;;;17.07;;
8312;SDS011;4194;43.408;24.626;2023-03-01T12:56:00;24.57;;;17.40;;
8312;SDS011;4194;43.408;24.626;2023-03-01T12:58:35;25.07;;;17.80;;
8312;SDS011;4194;43.408;24.626;2023-03-01T13:01:04;37.27;;;25.37;;
8312;SDS011;4194;43.408;24.626;2023-03-01T13:04:02;23.73;;;16.87;;
8312;SDS011;4194;43.408;24.626;2023-03-01T13:17:55;24.40;;;15.03;;
8312;SDS011;4194;43.408;24.626;2023-03-01T13:20:25;25.00;;;17.47;;
8312;SDS011;4194;43.408;24.626;2023-03-01T13:23:23;19.33;;;14.23;;
8312;SDS011;4194;43.408;24.626;2023-03-01T13:26:13;25.47;;;16.23;;
8312;SDS011;4194;43.408;24.626;2023-03-01T13:33:54;36.80;;;23.97;;
8312;SDS011;4194;43.408;24.626;2023-03-01T13:37:02;34.07;;;22.33;;
8312;SDS011;4194;43.408;24.626;2023-03-01T13:39:31;29.80;;;20.47;;
8312;SDS011;4194;43.408;24.626;2023-03-01T13:44:55;20.10;;;14.33;;
8312;SDS011;4194;43.408;24.626;2023-03-01T13:47:22;27.33;;;15.30;;
8312;SDS011;4194;43.408;24.626;2023-03-01T13:49:49;25.17;;;15.80;;
8312;SDS011;4194;43.408;24.626;2023-03-01T13:52:27;22.50;;;15.83;;
8312;SDS011;4194;43.408;24.626;2023-03-01T13:54:55;27.70;;;20.33;;
8312;SDS011;4194;43.408;24.626;2023-03-01T13:57:24;26.53;;;18.67;;
8312;SDS011;4194;43.408;24.626;2023-03-01T13:59:55;24.27;;;15.87;;
8312;SDS011;4194;43.408;24.626;2023-03-01T14:02:21;19.50;;;12.70;;
8312;SDS011;4194;43.408;24.626;2023-03-01T14:05:00;21.10;;;14.77;;
8312;SDS011;4194;43.408;24.626;2023-03-01T14:07:26;18.93;;;13.57;;
8312;SDS011;4194;43.408;24.626;2023-03-01T14:09:56;27.13;;;18.60;;
8312;SDS011;4194;43.408;24.626;2023-03-01T14:12:39;22.40;;;14.70;;
8312;SDS011;4194;43.408;24.626;2023-03-01T14:18:15;23.33;;;13.73;;
8312;SDS011;4194;43.408;24.626;2023-03-01T14:20:47;24.03;;;16.70;;
8312;SDS011;4194;43.408;24.626;2023-03-01T14:23:20;24.17;;;14.77;;
8312;SDS011;4194;43.408;24.626;2023-03-01T14:25:48;22.53;;;15.70;;
8312;SDS011;4194;43.408;24.626;2023-03-01T14:28:15;26.77;;;16.83;;
8312;SDS011;4194;43.408;24.626;2023-03-01T14:30:52;33.27;;;17.90;;
8312;SDS011;4194;43.408;24.626;2023-03-01T14:33:30;28.07;;;17.23;;
8312;SDS011;4194;43.408;24.626;2023-03-01T14:36:03;30.47;;;18.83;;
8312;SDS011;4194;43.408;24.626;2023-03-01T14:38:35;35.90;;;20.67;;
8312;SDS011;4194;43.408;24.626;2023-03-01T14:41:14;35.93;;;20.83;;
8312;SDS011;4194;43.408;24.626;2023-03-01T14:43:46;39.93;;;22.90;;
8312;SDS011;4194;43.408;24.626;2023-03-01T14:46:28;38.13;;;22.00;;
8312;SDS011;4194;43.408;24.626;2023-03-01T14:49:06;37.10;;;22.30;;
8312;SDS011;4194;43.408;24.626;2023-03-01T14:51:38;44.17;;;24.97;;
8312;SDS011;4194;43.408;24.626;2023-03-01T14:54:19;34.87;;;21.27;;
8312;SDS011;4194;43.408;24.626;2023-03-01T14:56:53;26.77;;;17.00;;
8312;SDS011;4194;43.408;24.626;2023-03-01T14:59:23;26.67;;;17.53;;
8312;SDS011;4194;43.408;24.626;2023-03-01T15:01:50;26.10;;;18.13;;
8312;SDS011;4194;43.408;24.626;2023-03-01T15:04:16;44.43;;;33.30;;
8312;SDS011;4194;43.408;24.626;2023-03-01T15:06:44;35.10;;;26.40;;
8312;SDS011;4194;43.408;24.626;2023-03-01T15:09:14;34.23;;;24.33;;
8312;SDS011;4194;43.408;24.626;2023-03-01T15:11:42;29.20;;;20.23;;
8312;SDS011;4194;43.408;24.626;2023-03-01T15:14:28;24.43;;;16.57;;
8312;SDS011;4194;43.408;24.626;2023-03-01T15:17:19;35.37;;;23.87;;
8312;SDS011;4194;43.408;24.626;2023-03-01T15:20:00;58.97;;;34.50;;
8312;SDS011;4194;43.408;24.626;2023-03-01T15:22:29;40.30;;;26.30;;
8312;SDS011;4194;43.408;24.626;2023-03-01T15:24:54;31.63;;;21.57;;
8312;SDS011;4194;43.408;24.626;2023-03-01T15:27:22;29.20;;;21.73;;
8312;SDS011;4194;43.408;24.626;2023-03-01T15:29:59;33.00;;;21.83;;
8312;SDS011;4194;43.408;24.626;2023-03-01T15:32:28;27.97;;;19.13;;
8312;SDS011;4194;43.408;24.626;2023-03-01T15:34:55;33.37;;;20.97;;
8312;SDS011;4194;43.408;24.626;2023-03-01T15:40:23;27.33;;;16.93;;
8312;SDS011;4194;43.408;24.626;2023-03-01T15:42:56;23.47;;;15.27;;
8312;SDS011;4194;43.408;24.626;2023-03-01T15:45:24;27.00;;;15.90;;
8312;SDS011;4194;43.408;24.626;2023-03-01T15:47:58;24.50;;;15.93;;
8312;SDS011;4194;43.408;24.626;2023-03-01T15:50:34;27.03;;;16.37;;
8312;SDS011;4194;43.408;24.626;2023-03-01T15:53:06;25.87;;;16.70;;
8312;SDS011;4194;43.408;24.626;2023-03-01T15:55:36;25.10;;;15.57;;
8312;SDS011;4194;43.408;24.626;2023-03-01T16:00:35;29.33;;;20.30;;
8312;SDS011;4194;43.408;24.626;2023-03-01T16:03:01;23.20;;;16.77;;
8312;SDS011;4194;43.408;24.626;2023-03-01T16:05:27;30.50;;;19.60;;
8312;SDS011;4194;43.408;24.626;2023-03-01T16:07:56;34.40;;;21.73;;
8312;SDS011;4194;43.408;24.626;2023-03-01T16:10:22;44.20;;;31.53;;
8312;SDS011;4194;43.408;24.626;2023-03-01T16:12:49;30.40;;;20.37;;
8312;SDS011;4194;43.408;24.626;2023-03-01T16:15:18;34.00;;;23.50;;
8312;SDS011;4194;43.408;24.626;2023-03-01T16:17:50;29.57;;;20.47;;
8312;SDS011;4194;43.408;24.626;2023-03-01T16:20:17;34.03;;;24.00;;
8312;SDS011;4194;43.408;24.626;2023-03-01T16:22:43;39.80;;;26.57;;
8312;SDS011;4194;43.408;24.626;2023-03-01T16:25:13;38.33;;;26.60;;
8312;SDS011;4194;43.408;24.626;2023-03-01T16:27:41;40.57;;;27.90;;
8312;SDS011;4194;43.408;24.626;2023-03-01T16:30:08;34.80;;;23.50;;
8312;SDS011;4194;43.408;24.626;2023-03-01T16:32:41;35.30;;;21.30;;
8312;SDS011;4194;43.408;24.626;2023-03-01T16:35:08;29.20;;;18.83;;
8312;SDS011;4194;43.408;24.626;2023-03-01T16:37:35;38.63;;;22.37;;
8312;SDS011;4194;43.408;24.626;2023-03-01T16:40:02;42.70;;;23.97;;
8312;SDS011;4194;43.408;24.626;2023-03-01T16:42:33;38.07;;;24.07;;
8312;SDS011;4194;43.408;24.626;2023-03-01T16:45:00;43.93;;;26.87;;
8312;SDS011;4194;43.408;24.626;2023-03-01T16:47:26;37.17;;;22.97;;
8312;SDS011;4194;43.408;24.626;2023-03-01T16:49:53;33.70;;;21.10;;
8312;SDS011;4194;43.408;24.626;2023-03-01T16:52:19;39.50;;;21.57;;